Time;durP1;ratioP1;P1;durP2;ratioP2;P2;SDS_P1;SDS_P2;PMS_P1;PMS_P2;Temp;Humidity;BMP_temperature;BMP_pressure;BME280_temperature;BME280_humidity;BME280_pressure;Samples;Min_cycle;Max_cycle;Signal;HPM_P1;HPM_P2
2023/07/02 00:00:05;;;;;;;6.85;4.70;;;17.80;99.90;;;;;;5032698;28;20207;-82
2023/07/02 00:02:36;;;;;;;6.07;4.40;;;17.80;99.90;;;;;;5054067;28;20191;-81
2023/07/02 00:05:04;;;;;;;5.43;4.15;;;17.80;99.90;;;;;;5029521;28;20221;-82
2023/07/02 00:07:32;;;;;;;5.70;4.45;;;17.80;99.90;;;;;;5037380;28;20203;-82
2023/07/02 00:10:01;;;;;;;5.60;4.72;;;17.80;99.90;;;;;;5043778;28;20223;-82
2023/07/02 00:12:29;;;;;;;5.13;3.83;;;17.80;99.90;;;;;;5041162;28;20210;-82
2023/07/02 00:14:56;;;;;;;9.13;4.55;;;17.90;99.90;;;;;;5039237;28;20226;-82
2023/07/02 00:17:23;;;;;;;4.72;4.05;;;17.80;99.90;;;;;;5029192;28;20681;-82
2023/07/02 00:19:51;;;;;;;6.15;4.00;;;17.80;99.90;;;;;;5022477;28;20210;-81
2023/07/02 00:22:19;;;;;;;5.30;4.75;;;17.80;99.90;;;;;;5017426;28;20458;-82
2023/07/02 00:24:46;;;;;;;5.22;4.18;;;17.80;99.90;;;;;;5029157;28;20235;-82
2023/07/02 00:27:15;;;;;;;7.68;4.47;;;17.80;99.90;;;;;;5029551;28;20677;-82
2023/07/02 00:29:43;;;;;;;4.22;3.83;;;17.80;99.90;;;;;;5011707;28;20214;-81
2023/07/02 00:32:10;;;;;;;6.45;4.43;;;17.80;99.90;;;;;;5033503;28;20562;-81
2023/07/02 00:34:38;;;;;;;9.40;4.75;;;17.80;99.90;;;;;;5036991;28;20210;-81
2023/07/02 00:37:11;;;;;;;5.35;4.25;;;17.80;99.90;;;;;;5024364;28;20200;-82
2023/07/02 00:39:39;;;;;;;6.68;4.47;;;17.80;99.90;;;;;;5037629;28;20198;-82
2023/07/02 00:42:08;;;;;;;5.15;4.40;;;17.80;99.90;;;;;;5031325;28;20561;-81
2023/07/02 00:44:41;;;;;;;5.82;4.10;;;17.80;99.90;;;;;;5029276;28;20226;-82
2023/07/02 00:47:08;;;;;;;5.50;4.78;;;17.80;99.90;;;;;;5031098;28;20195;-82
2023/07/02 00:49:36;;;;;;;8.05;4.85;;;17.80;99.90;;;;;;5033741;28;20210;-81
2023/07/02 00:52:04;;;;;;;4.43;3.92;;;17.80;99.90;;;;;;5032593;28;20211;-82
2023/07/02 00:54:32;;;;;;;4.65;4.10;;;17.80;99.90;;;;;;5035851;28;20227;-82
2023/07/02 00:57:03;;;;;;;5.05;4.22;;;17.80;99.90;;;;;;5027855;28;20211;-82
2023/07/02 00:59:31;;;;;;;5.93;4.47;;;17.80;99.90;;;;;;5014515;28;20190;-82
2023/07/02 01:02:00;;;;;;;6.13;4.63;;;17.70;99.90;;;;;;5025908;28;20202;-82
2023/07/02 01:04:27;;;;;;;6.70;4.35;;;17.70;99.90;;;;;;5039423;28;20215;-82
2023/07/02 01:06:57;;;;;;;4.72;3.60;;;17.80;99.90;;;;;;5025134;28;20207;-81
2023/07/02 01:09:26;;;;;;;6.60;4.15;;;17.70;99.90;;;;;;5031809;28;20199;-82
2023/07/02 01:11:56;;;;;;;9.30;4.88;;;17.70;99.90;;;;;;5041903;28;20564;-81
2023/07/02 01:14:27;;;;;;;6.32;4.50;;;17.70;99.90;;;;;;5019486;28;20706;-82
2023/07/02 01:16:56;;;;;;;5.80;3.85;;;17.70;99.90;;;;;;5026298;28;20207;-82
2023/07/02 01:19:40;;;;;;;5.60;4.05;;;17.70;99.90;;;;;;5031461;28;20238;-82
2023/07/02 01:22:08;;;;;;;5.30;4.30;;;17.70;99.90;;;;;;5022251;28;20668;-81
2023/07/02 01:24:36;;;;;;;5.47;4.10;;;17.60;99.90;;;;;;5025703;28;20223;-82
2023/07/02 01:27:04;;;;;;;7.93;4.65;;;17.60;99.90;;;;;;5021678;28;20191;-81
2023/07/02 01:29:32;;;;;;;8.95;4.72;;;17.50;99.90;;;;;;5029611;28;20215;-82
2023/07/02 01:31:59;;;;;;;6.22;4.78;;;17.50;99.90;;;;;;5023098;28;20227;-82
2023/07/02 01:34:27;;;;;;;9.80;4.88;;;17.40;99.90;;;;;;5029560;28;20229;-82
2023/07/02 01:36:56;;;;;;;8.23;5.18;;;17.40;99.90;;;;;;5024949;28;20199;-81
2023/07/02 01:39:23;;;;;;;6.45;4.70;;;17.40;99.90;;;;;;5031033;28;20202;-82
2023/07/02 01:41:52;;;;;;;8.38;5.28;;;17.50;99.90;;;;;;5024265;28;20206;-82
2023/07/02 01:44:21;;;;;;;7.25;4.72;;;17.50;99.90;;;;;;5018624;28;20214;-81
2023/07/02 01:46:49;;;;;;;9.07;4.60;;;17.30;99.90;;;;;;5027312;28;20206;-82
2023/07/02 01:49:17;;;;;;;7.43;4.03;;;17.40;99.90;;;;;;5037107;28;20214;-82
2023/07/02 01:51:46;;;;;;;7.40;4.57;;;17.50;99.90;;;;;;5035382;28;20215;-82
2023/07/02 01:54:15;;;;;;;7.40;4.50;;;17.40;99.90;;;;;;5032857;28;20227;-82
2023/07/02 01:56:43;;;;;;;8.30;4.50;;;17.40;99.90;;;;;;5016804;28;20665;-82
2023/07/02 01:59:10;;;;;;;8.77;5.10;;;17.50;99.90;;;;;;5032740;28;20207;-82
2023/07/02 02:01:41;;;;;;;7.22;4.80;;;17.50;99.90;;;;;;5031812;28;20208;-81
2023/07/02 02:04:09;;;;;;;8.75;4.95;;;17.50;99.90;;;;;;5036932;28;20219;-81
2023/07/02 02:06:36;;;;;;;9.43;4.60;;;17.50;99.90;;;;;;5012691;28;20203;-81
2023/07/02 02:09:04;;;;;;;8.70;4.80;;;17.30;99.90;;;;;;5020451;28;20215;-82
2023/07/02 02:11:34;;;;;;;8.27;4.88;;;17.30;99.90;;;;;;5018404;28;20208;-81
2023/07/02 02:14:02;;;;;;;6.32;4.70;;;17.30;99.90;;;;;;5018612;28;20219;-82
2023/07/02 02:16:30;;;;;;;8.85;4.55;;;17.30;99.90;;;;;;5026521;28;20199;-82
2023/07/02 02:18:57;;;;;;;9.05;5.28;;;17.30;99.90;;;;;;5034340;28;20656;-81
2023/07/02 02:21:25;;;;;;;10.95;4.75;;;17.20;99.90;;;;;;5033180;28;20668;-82
2023/07/02 02:23:52;;;;;;;7.82;4.78;;;17.20;99.90;;;;;;5034628;28;20611;-82
2023/07/02 02:26:21;;;;;;;8.35;4.82;;;17.20;99.90;;;;;;5030977;28;20210;-82
2023/07/02 02:28:50;;;;;;;8.25;5.25;;;17.20;99.90;;;;;;5035052;28;20554;-82
2023/07/02 02:31:18;;;;;;;11.93;5.97;;;17.20;99.90;;;;;;5033612;28;20215;-81
2023/07/02 02:33:46;;;;;;;9.65;5.20;;;17.10;99.90;;;;;;5027072;28;20214;-82
2023/07/02 02:36:14;;;;;;;10.77;5.43;;;17.20;99.90;;;;;;5035328;28;20195;-82
2023/07/02 02:38:41;;;;;;;10.55;5.40;;;17.20;99.90;;;;;;5037588;28;20194;-81
2023/07/02 02:41:09;;;;;;;11.07;5.85;;;17.20;99.90;;;;;;5039582;28;20198;-82
2023/07/02 02:43:43;;;;;;;7.47;5.13;;;17.10;99.90;;;;;;5035718;28;20202;-81
2023/07/02 02:46:13;;;;;;;9.45;5.30;;;17.00;99.90;;;;;;5031260;28;20221;-82
2023/07/02 02:48:41;;;;;;;8.88;5.60;;;17.00;99.90;;;;;;5031115;28;20237;-81
2023/07/02 02:51:08;;;;;;;11.52;6.00;;;17.00;99.90;;;;;;5036279;28;20211;-81
2023/07/02 02:53:35;;;;;;;10.70;6.30;;;17.00;99.90;;;;;;5036073;28;20206;-82
2023/07/02 02:56:03;;;;;;;10.48;6.53;;;16.90;99.90;;;;;;5028633;28;20195;-82
2023/07/02 02:58:30;;;;;;;9.88;6.60;;;17.00;99.90;;;;;;5036108;28;20202;-82
2023/07/02 03:00:58;;;;;;;10.23;6.18;;;16.90;99.90;;;;;;5031168;28;20207;-81
2023/07/02 03:03:26;;;;;;;10.30;6.28;;;16.90;99.90;;;;;;5034719;28;20585;-82
2023/07/02 03:05:54;;;;;;;12.23;6.93;;;16.90;99.90;;;;;;5029755;28;20225;-82
2023/07/02 03:08:21;;;;;;;11.77;6.65;;;16.90;99.90;;;;;;5033524;28;20207;-81
2023/07/02 03:10:49;;;;;;;9.13;6.03;;;16.80;99.90;;;;;;5030329;28;20207;-82
2023/07/02 03:13:16;;;;;;;13.00;7.65;;;16.80;99.90;;;;;;5031563;28;20215;-81
2023/07/02 03:15:44;;;;;;;11.40;7.63;;;16.80;99.90;;;;;;5021089;28;20223;-81
2023/07/02 03:18:11;;;;;;;10.38;6.55;;;16.80;99.90;;;;;;5031882;28;20213;-82
2023/07/02 03:20:40;;;;;;;15.05;8.05;;;16.90;99.90;;;;;;5029608;28;20207;-81
2023/07/02 03:23:08;;;;;;;18.05;8.63;;;16.80;99.90;;;;;;5033610;28;20200;-81
2023/07/02 03:25:35;;;;;;;14.15;8.50;;;16.80;99.90;;;;;;5012805;28;20227;-81
2023/07/02 03:28:03;;;;;;;13.80;8.77;;;16.80;99.90;;;;;;5028290;28;20204;-81
2023/07/02 03:30:30;;;;;;;14.63;8.80;;;16.80;99.90;;;;;;5017806;28;20210;-82
2023/07/02 03:32:59;;;;;;;13.38;8.63;;;16.90;99.90;;;;;;5035869;28;20226;-81
2023/07/02 03:35:26;;;;;;;14.40;7.97;;;16.80;99.90;;;;;;5032002;28;20615;-81
2023/07/02 03:37:55;;;;;;;13.68;8.65;;;17.00;99.90;;;;;;5040461;28;20194;-81
2023/07/02 03:40:22;;;;;;;15.45;9.00;;;17.00;99.90;;;;;;5035529;28;20213;-82
2023/07/02 03:42:50;;;;;;;12.82;8.95;;;17.10;99.90;;;;;;5018817;28;20199;-82
2023/07/02 03:45:20;;;;;;;15.70;8.57;;;17.10;99.90;;;;;;5033156;28;20577;-82
2023/07/02 03:47:47;;;;;;;13.80;8.27;;;17.00;99.90;;;;;;5028473;28;20199;-82
2023/07/02 03:50:15;;;;;;;13.20;9.15;;;17.00;99.90;;;;;;5031774;28;20210;-81
2023/07/02 03:52:42;;;;;;;16.75;8.85;;;17.00;99.90;;;;;;5032435;28;20760;-81
2023/07/02 03:55:11;;;;;;;11.98;8.15;;;17.00;99.90;;;;;;5025440;28;20223;-82
2023/07/02 03:57:39;;;;;;;16.13;9.55;;;17.10;99.90;;;;;;5029030;28;20195;-82
2023/07/02 04:00:09;;;;;;;14.00;9.30;;;17.10;99.90;;;;;;5038716;28;20203;-82
2023/07/02 04:02:42;;;;;;;15.23;9.05;;;17.00;99.90;;;;;;5034982;28;20201;-81
2023/07/02 04:05:09;;;;;;;15.27;9.27;;;17.00;99.90;;;;;;5029784;28;20215;-81
2023/07/02 04:07:37;;;;;;;18.27;9.38;;;17.00;99.90;;;;;;5028042;28;20202;-82
2023/07/02 04:10:05;;;;;;;16.17;9.95;;;17.00;99.90;;;;;;5035606;28;20195;-81
2023/07/02 04:12:34;;;;;;;15.23;9.85;;;17.10;99.90;;;;;;5027591;28;20215;-81
2023/07/02 04:15:02;;;;;;;14.85;9.52;;;17.20;99.90;;;;;;5031218;28;20219;-82
2023/07/02 04:17:29;;;;;;;15.95;9.55;;;17.20;99.90;;;;;;5034488;28;20210;-81
2023/07/02 04:19:58;;;;;;;17.92;10.13;;;17.10;99.90;;;;;;5033840;28;20203;-82
2023/07/02 04:22:25;;;;;;;17.27;10.35;;;17.00;99.90;;;;;;5024972;28;20210;-82
2023/07/02 04:25:23;;;;;;;16.88;10.13;;;16.90;99.90;;;;;;5025831;28;20235;-82
2023/07/02 04:27:56;;;;;;;17.42;10.00;;;16.90;99.90;;;;;;5022165;28;20194;-82
2023/07/02 04:30:23;;;;;;;18.35;10.80;;;16.90;99.90;;;;;;5030525;28;20195;-82
2023/07/02 04:32:51;;;;;;;16.17;10.43;;;16.90;99.90;;;;;;5044641;22;20202;-75
2023/07/02 04:35:19;;;;;;;15.43;9.98;;;17.00;99.90;;;;;;5004381;28;20215;-77
2023/07/02 04:37:47;;;;;;;19.13;11.07;;;17.00;99.90;;;;;;5006353;28;20204;-78
2023/07/02 04:40:14;;;;;;;17.13;11.30;;;17.00;99.90;;;;;;4989724;28;20213;-78
2023/07/02 04:42:46;;;;;;;19.15;11.75;;;17.00;99.90;;;;;;5007148;28;20192;-78
2023/07/02 04:45:16;;;;;;;19.58;11.32;;;16.90;99.90;;;;;;5027138;28;20202;-78
2023/07/02 04:47:44;;;;;;;17.20;11.32;;;16.90;99.90;;;;;;5010783;28;20199;-78
2023/07/02 04:50:11;;;;;;;18.58;11.38;;;16.90;99.90;;;;;;5013620;28;20218;-78
2023/07/02 04:52:39;;;;;;;22.88;12.63;;;16.90;99.90;;;;;;5022213;28;20584;-78
2023/07/02 04:55:07;;;;;;;19.50;12.73;;;16.90;99.90;;;;;;5027161;28;20207;-78
2023/07/02 04:57:35;;;;;;;20.23;12.48;;;16.90;99.90;;;;;;5014763;28;20199;-78
2023/07/02 05:00:05;;;;;;;22.30;13.55;;;17.00;99.90;;;;;;5030941;28;20214;-78
2023/07/02 05:02:37;;;;;;;22.35;13.18;;;17.00;99.90;;;;;;5000773;28;20210;-78
2023/07/02 05:05:05;;;;;;;20.05;12.68;;;16.90;99.90;;;;;;5020251;28;20664;-78
2023/07/02 05:07:36;;;;;;;22.20;12.88;;;17.00;99.90;;;;;;5025273;28;20195;-78
2023/07/02 05:10:04;;;;;;;21.85;13.00;;;17.00;99.90;;;;;;5010790;28;20211;-78
2023/07/02 05:12:40;;;;;;;21.58;13.98;;;17.00;99.90;;;;;;5009450;28;20219;-78
2023/07/02 05:15:08;;;;;;;21.70;13.30;;;17.00;99.90;;;;;;5020164;28;20217;-78
2023/07/02 05:17:37;;;;;;;25.75;14.75;;;17.00;99.90;;;;;;5024274;28;20241;-78
2023/07/02 05:20:05;;;;;;;20.48;14.05;;;17.00;99.90;;;;;;5013924;28;20199;-78
2023/07/02 05:22:32;;;;;;;22.58;13.65;;;16.90;99.90;;;;;;5006269;28;20218;-78
2023/07/02 05:25:00;;;;;;;25.65;14.30;;;16.90;99.90;;;;;;5004385;28;20228;-78
2023/07/02 05:27:44;;;;;;;21.35;12.95;;;16.90;99.90;;;;;;5012902;28;20202;-78
2023/07/02 05:30:12;;;;;;;20.27;12.90;;;17.10;99.90;;;;;;5029691;28;20214;-78
2023/07/02 05:32:41;;;;;;;22.60;12.98;;;17.10;99.90;;;;;;5021054;28;20243;-78
2023/07/02 05:35:09;;;;;;;24.85;14.75;;;17.20;99.90;;;;;;5009301;28;20203;-78
2023/07/02 05:37:36;;;;;;;23.73;15.45;;;17.20;99.90;;;;;;5015559;28;20597;-78
2023/07/02 05:40:04;;;;;;;23.55;13.32;;;17.20;99.90;;;;;;5011362;28;20208;-79
2023/07/02 05:42:32;;;;;;;23.40;14.00;;;17.30;99.90;;;;;;5023465;28;20199;-79
2023/07/02 05:45:09;;;;;;;22.58;13.43;;;17.20;99.90;;;;;;5023103;28;20230;-78
2023/07/02 05:47:36;;;;;;;27.05;14.82;;;17.10;99.90;;;;;;5025760;28;20199;-78
2023/07/02 05:50:06;;;;;;;24.65;13.93;;;17.10;99.90;;;;;;5022333;28;20222;-79
2023/07/02 05:52:34;;;;;;;20.20;13.20;;;17.20;99.90;;;;;;5018261;28;20213;-79
2023/07/02 05:55:01;;;;;;;24.77;13.73;;;17.20;99.90;;;;;;5022807;28;20226;-79
2023/07/02 05:57:28;;;;;;;22.92;13.45;;;17.20;99.90;;;;;;5009222;28;20213;-79
2023/07/02 05:59:56;;;;;;;26.63;14.27;;;17.30;99.90;;;;;;5018994;28;20206;-79
2023/07/02 06:02:40;;;;;;;25.15;13.98;;;17.40;99.90;;;;;;5015779;28;20198;-78
2023/07/02 06:05:10;;;;;;;24.10;14.35;;;17.60;99.90;;;;;;5025940;28;20226;-78
2023/07/02 06:07:37;;;;;;;27.88;13.85;;;17.50;99.90;;;;;;5012342;28;20207;-78
2023/07/02 06:10:05;;;;;;;26.85;14.02;;;17.40;99.90;;;;;;5000109;28;20688;-78
2023/07/02 06:12:32;;;;;;;22.48;13.30;;;17.50;99.90;;;;;;5028699;28;20688;-78
2023/07/02 06:15:00;;;;;;;22.35;13.55;;;17.40;99.90;;;;;;5012504;28;20242;-79
2023/07/02 06:17:27;;;;;;;22.70;13.25;;;17.60;99.90;;;;;;5003021;28;20199;-79
2023/07/02 06:19:55;;;;;;;23.80;13.90;;;17.70;99.90;;;;;;5012400;28;20210;-78
2023/07/02 06:22:23;;;;;;;24.17;12.68;;;17.60;99.90;;;;;;5018369;28;20195;-78
2023/07/02 06:24:58;;;;;;;21.08;13.82;;;17.50;99.90;;;;;;5021698;28;20249;-80
2023/07/02 06:27:25;;;;;;;21.70;13.70;;;17.40;99.90;;;;;;5011869;28;20678;-79
2023/07/02 06:29:53;;;;;;;24.35;14.57;;;17.40;99.90;;;;;;5030144;28;20211;-79
2023/07/02 06:32:20;;;;;;;21.38;13.00;;;17.50;99.90;;;;;;5023142;28;20199;-79
2023/07/02 06:34:48;;;;;;;27.05;14.02;;;17.50;99.90;;;;;;5019830;28;20231;-79
2023/07/02 06:37:15;;;;;;;23.35;13.95;;;17.70;99.90;;;;;;5026360;28;20556;-78
2023/07/02 06:39:44;;;;;;;20.88;12.23;;;17.70;99.90;;;;;;5029556;28;20187;-78
2023/07/02 06:42:11;;;;;;;25.55;13.40;;;17.80;99.90;;;;;;5024430;28;20210;-78
2023/07/02 06:44:41;;;;;;;23.73;11.90;;;18.00;99.90;;;;;;5019360;28;20220;-78
2023/07/02 06:47:09;;;;;;;22.85;11.80;;;18.00;99.90;;;;;;5024012;28;20206;-78
2023/07/02 06:49:37;;;;;;;18.75;11.65;;;17.90;99.90;;;;;;5021498;28;20207;-78
2023/07/02 06:52:06;;;;;;;21.05;11.00;;;18.10;99.90;;;;;;5014742;28;20208;-78
2023/07/02 06:54:55;;;;;;;19.63;11.48;;;18.10;99.90;;;;;;5008046;28;20254;-78
2023/07/02 06:57:24;;;;;;;19.40;11.23;;;18.30;99.90;;;;;;5031364;28;20186;-78
2023/07/02 06:59:52;;;;;;;19.02;11.52;;;18.10;99.90;;;;;;5030385;28;20195;-78
2023/07/02 07:02:19;;;;;;;19.58;11.25;;;18.20;99.90;;;;;;5020007;28;20211;-78
2023/07/02 07:04:47;;;;;;;19.15;10.95;;;18.10;99.90;;;;;;5023896;28;20230;-78
2023/07/02 07:07:27;;;;;;;20.25;11.15;;;18.10;99.90;;;;;;5022254;28;20206;-79
2023/07/02 07:09:56;;;;;;;19.15;10.88;;;18.30;99.90;;;;;;5024920;28;20857;-79
2023/07/02 07:12:24;;;;;;;18.00;11.60;;;18.20;99.90;;;;;;5012031;28;20199;-78
2023/07/02 07:14:51;;;;;;;18.45;10.63;;;18.30;99.90;;;;;;5022588;28;20223;-81
2023/07/02 07:17:18;;;;;;;22.08;11.10;;;18.40;99.90;;;;;;5013564;28;20214;-79
2023/07/02 07:19:46;;;;;;;19.83;11.02;;;18.50;99.90;;;;;;5018931;28;20219;-79
2023/07/02 07:22:13;;;;;;;17.13;10.95;;;18.60;99.90;;;;;;5024311;28;20196;-79
2023/07/02 07:24:45;;;;;;;18.85;11.63;;;18.70;99.90;;;;;;5011743;28;20239;-79
2023/07/02 07:27:14;;;;;;;15.65;10.15;;;18.70;99.90;;;;;;5027007;28;20214;-79
2023/07/02 07:29:44;;;;;;;22.00;10.32;;;18.70;99.90;;;;;;5019576;28;20211;-79
2023/07/02 07:32:12;;;;;;;19.98;10.05;;;18.60;99.90;;;;;;5039889;28;20194;-79
2023/07/02 07:34:39;;;;;;;17.50;9.98;;;18.50;99.90;;;;;;5035719;28;20230;-79
2023/07/02 07:37:07;;;;;;;16.58;9.48;;;18.60;99.90;;;;;;5020035;28;20207;-79
2023/07/02 07:39:34;;;;;;;16.15;9.27;;;18.60;99.90;;;;;;5028976;28;20203;-79
2023/07/02 07:42:01;;;;;;;14.52;8.57;;;18.60;98.70;;;;;;5018729;28;20561;-79
2023/07/02 07:44:30;;;;;;;19.90;9.32;;;18.50;97.10;;;;;;5027599;28;20218;-79
2023/07/02 07:46:58;;;;;;;15.30;9.07;;;18.60;97.60;;;;;;5033534;28;20192;-79
2023/07/02 07:49:25;;;;;;;13.40;8.90;;;18.60;98.60;;;;;;5011241;28;20195;-79
2023/07/02 07:51:53;;;;;;;16.70;10.00;;;18.80;98.80;;;;;;5018016;28;20206;-79
2023/07/02 07:54:22;;;;;;;15.85;9.65;;;18.70;99.90;;;;;;5018052;28;20234;-79
2023/07/02 07:56:50;;;;;;;15.35;9.38;;;18.70;99.90;;;;;;5033582;28;20199;-79
2023/07/02 07:59:17;;;;;;;14.80;8.75;;;18.70;99.10;;;;;;5027105;28;20190;-79
2023/07/02 08:01:47;;;;;;;12.02;8.27;;;18.80;96.70;;;;;;5027762;28;20202;-79
2023/07/02 08:04:14;;;;;;;17.92;8.55;;;18.70;94.40;;;;;;5009865;28;20227;-79
2023/07/02 08:06:41;;;;;;;15.52;8.75;;;18.60;94.20;;;;;;5010286;28;20191;-79
2023/07/02 08:09:09;;;;;;;15.88;8.25;;;18.60;94.70;;;;;;5031248;28;20661;-79
2023/07/02 08:11:37;;;;;;;13.35;7.78;;;18.70;95.10;;;;;;5002635;28;20199;-79
2023/07/02 08:14:05;;;;;;;17.92;9.35;;;18.70;95.90;;;;;;5029921;28;20575;-80
2023/07/02 08:16:34;;;;;;;15.82;8.45;;;18.90;96.20;;;;;;5013941;28;20673;-78
2023/07/02 08:19:03;;;;;;;18.75;9.05;;;19.10;95.90;;;;;;5041071;28;20206;-79
2023/07/02 08:21:31;;;;;;;15.52;9.07;;;18.90;95.70;;;;;;5036293;28;20548;-79
2023/07/02 08:23:58;;;;;;;15.80;8.95;;;18.90;95.90;;;;;;5017110;28;20220;-79
2023/07/02 08:26:26;;;;;;;17.42;8.68;;;19.20;96.00;;;;;;5029135;28;20199;-79
2023/07/02 08:28:53;;;;;;;15.32;9.20;;;19.20;95.40;;;;;;5013859;28;20285;-78
2023/07/02 08:31:21;;;;;;;20.13;9.35;;;19.30;96.00;;;;;;5015739;28;20571;-79
2023/07/02 08:33:48;;;;;;;14.73;8.70;;;19.40;95.70;;;;;;5025744;28;20223;-79
2023/07/02 08:36:17;;;;;;;14.27;8.65;;;19.50;95.70;;;;;;5033320;28;20202;-79
2023/07/02 08:38:45;;;;;;;15.27;8.77;;;19.50;95.30;;;;;;5024439;28;20199;-80
2023/07/02 08:41:13;;;;;;;15.68;8.27;;;19.50;95.30;;;;;;5014595;28;20202;-80
2023/07/02 08:43:41;;;;;;;14.95;8.45;;;19.40;95.30;;;;;;5025197;28;20327;-79
2023/07/02 08:46:09;;;;;;;16.73;8.43;;;19.30;94.90;;;;;;5012325;28;20207;-80
2023/07/02 08:48:37;;;;;;;15.27;8.73;;;19.10;95.40;;;;;;5023740;28;20882;-81
2023/07/02 08:51:04;;;;;;;15.20;7.97;;;19.30;94.90;;;;;;5018859;28;20208;-81
2023/07/02 08:53:35;;;;;;;13.38;8.07;;;19.20;94.40;;;;;;5022009;28;20222;-80
2023/07/02 08:56:04;;;;;;;14.07;7.38;;;19.00;93.30;;;;;;5025102;28;20230;-80
2023/07/02 08:58:31;;;;;;;13.00;8.07;;;19.00;94.00;;;;;;5024728;28;20211;-80
2023/07/02 09:01:09;;;;;;;11.15;7.47;;;19.20;93.80;;;;;;5024329;28;20204;-79
2023/07/02 09:03:38;;;;;;;12.90;6.93;;;19.10;93.60;;;;;;5026682;28;20230;-80
2023/07/02 09:06:22;;;;;;;9.43;6.47;;;19.20;93.60;;;;;;5009408;28;20214;-80
2023/07/02 09:08:50;;;;;;;12.68;7.40;;;19.20;92.70;;;;;;5023197;28;20211;-80
2023/07/02 09:11:19;;;;;;;11.88;7.05;;;19.40;92.20;;;;;;5011557;28;20207;-80
2023/07/02 09:13:48;;;;;;;12.13;7.07;;;19.20;92.60;;;;;;5017813;28;20688;-80
2023/07/02 09:16:36;;;;;;;11.63;7.03;;;19.20;92.40;;;;;;5016097;28;20218;-80
2023/07/02 09:19:05;;;;;;;12.45;7.43;;;19.20;92.10;;;;;;5016340;28;20199;-80
2023/07/02 09:21:42;;;;;;;14.35;7.05;;;19.20;92.00;;;;;;5030173;28;20211;-80
2023/07/02 09:24:22;;;;;;;11.93;6.40;;;19.50;91.90;;;;;;5023369;28;20225;-80
2023/07/02 09:26:51;;;;;;;10.88;5.95;;;19.50;91.60;;;;;;5012531;28;20199;-79
2023/07/02 09:29:21;;;;;;;10.00;5.90;;;19.60;91.60;;;;;;5028282;28;20215;-80
2023/07/02 09:31:49;;;;;;;12.05;7.38;;;19.80;92.10;;;;;;5004716;28;20219;-80
2023/07/02 09:34:17;;;;;;;9.25;6.15;;;19.60;90.60;;;;;;5016758;28;20235;-80
2023/07/02 09:36:45;;;;;;;12.00;7.13;;;19.40;90.20;;;;;;5031135;28;20210;-80
2023/07/02 09:39:21;;;;;;;14.88;6.80;;;19.40;90.20;;;;;;5029320;28;20207;-79
2023/07/02 09:41:50;;;;;;;10.77;6.43;;;19.60;91.20;;;;;;5026489;28;20216;-80
2023/07/02 09:44:19;;;;;;;12.05;6.88;;;19.70;90.30;;;;;;5009712;28;20937;-79
2023/07/02 09:46:52;;;;;;;13.00;7.03;;;19.60;90.20;;;;;;5008472;28;20209;-79
2023/07/02 09:49:23;;;;;;;13.45;6.55;;;19.50;90.40;;;;;;5020972;28;20202;-79
2023/07/02 09:51:51;;;;;;;10.25;6.70;;;19.40;90.20;;;;;;5031645;28;20209;-79
2023/07/02 09:54:20;;;;;;;13.15;7.30;;;19.50;90.70;;;;;;5011369;28;20219;-80
2023/07/02 09:56:48;;;;;;;14.20;7.38;;;19.50;90.80;;;;;;5016040;28;20213;-80
2023/07/02 09:59:16;;;;;;;10.65;6.63;;;19.60;91.30;;;;;;5028868;28;20214;-79
2023/07/02 10:01:43;;;;;;;12.38;7.50;;;19.50;91.10;;;;;;5026297;28;20212;-80
2023/07/02 10:04:15;;;;;;;15.60;6.82;;;19.60;91.90;;;;;;5026371;28;20724;-81
2023/07/02 10:06:47;;;;;;;12.02;6.95;;;19.90;91.90;;;;;;5023485;28;20219;-80
2023/07/02 10:09:18;;;;;;;12.52;6.53;;;19.90;91.90;;;;;;5026103;28;20203;-79
2023/07/02 10:11:46;;;;;;;11.85;7.07;;;19.70;91.60;;;;;;5026998;28;20195;-80
2023/07/02 10:14:15;;;;;;;10.55;6.53;;;19.40;91.00;;;;;;5027498;28;20229;-80
2023/07/02 10:16:52;;;;;;;10.60;6.65;;;19.50;91.30;;;;;;5015938;28;20219;-80
2023/07/02 10:19:20;;;;;;;10.63;6.47;;;19.50;90.80;;;;;;5032419;28;20202;-80
2023/07/02 10:21:50;;;;;;;11.40;6.90;;;19.30;91.00;;;;;;5014726;28;20207;-81
2023/07/02 10:24:18;;;;;;;10.90;6.75;;;19.50;91.10;;;;;;5030047;28;20219;-79
2023/07/02 10:26:58;;;;;;;13.60;7.47;;;19.60;91.00;;;;;;5015937;28;20207;-79
2023/07/02 10:29:26;;;;;;;13.38;7.40;;;19.40;90.60;;;;;;5007124;28;20206;-79
2023/07/02 10:31:55;;;;;;;10.90;6.63;;;19.40;90.80;;;;;;5031070;28;20585;-79
2023/07/02 10:34:30;;;;;;;11.10;6.35;;;19.30;90.60;;;;;;5029287;28;20227;-79
2023/07/02 10:36:58;;;;;;;14.57;6.38;;;19.60;90.80;;;;;;5033461;28;20229;-80
2023/07/02 10:39:26;;;;;;;11.20;6.38;;;19.60;90.60;;;;;;5022804;28;20199;-79
2023/07/02 10:41:53;;;;;;;11.20;6.53;;;19.60;90.30;;;;;;5030824;28;20195;-80
2023/07/02 10:44:23;;;;;;;12.50;6.85;;;19.70;90.00;;;;;;5029280;28;20233;-79
2023/07/02 10:46:52;;;;;;;11.73;6.45;;;19.80;90.00;;;;;;5023390;28;20200;-79
2023/07/02 10:49:20;;;;;;;13.48;6.63;;;19.60;90.10;;;;;;5027337;28;20214;-79
2023/07/02 10:51:58;;;;;;;12.85;6.63;;;19.80;90.20;;;;;;5026016;28;20199;-79
2023/07/02 10:54:48;;;;;;;11.52;6.88;;;19.90;90.10;;;;;;5029929;28;20230;-79
2023/07/02 10:57:20;;;;;;;10.48;6.63;;;20.20;90.10;;;;;;5022089;28;20203;-79
2023/07/02 10:59:49;;;;;;;12.18;6.47;;;20.40;89.40;;;;;;5029864;28;20214;-79
2023/07/02 11:02:24;;;;;;;10.88;6.90;;;20.50;90.00;;;;;;5015109;28;20210;-79
2023/07/02 11:04:51;;;;;;;14.80;6.55;;;20.70;90.10;;;;;;5014938;28;20222;-79
2023/07/02 11:07:24;;;;;;;11.68;7.05;;;20.60;89.50;;;;;;5021119;28;20779;-79
2023/07/02 11:09:51;;;;;;;9.57;6.70;;;20.50;88.80;;;;;;5012439;28;20207;-79
2023/07/02 11:12:19;;;;;;;12.90;6.82;;;20.20;89.20;;;;;;5027287;28;20202;-79
2023/07/02 11:14:48;;;;;;;12.02;6.43;;;20.00;88.90;;;;;;5030276;28;20222;-79
2023/07/02 11:17:15;;;;;;;11.73;7.30;;;19.80;89.90;;;;;;5021669;28;20243;-80
2023/07/02 11:19:50;;;;;;;11.13;6.25;;;19.90;90.00;;;;;;5026273;28;20206;-80
2023/07/02 11:22:18;;;;;;;10.13;6.07;;;19.90;88.80;;;;;;5004333;28;20559;-80
2023/07/02 11:24:45;;;;;;;12.18;6.38;;;19.60;87.10;;;;;;5031700;28;20226;-80
2023/07/02 11:27:22;;;;;;;10.25;5.90;;;19.70;87.00;;;;;;5015644;28;20210;-80
2023/07/02 11:30:00;;;;;;;11.23;6.15;;;19.80;86.90;;;;;;5017666;28;20218;-81
2023/07/02 11:32:36;;;;;;;10.77;5.85;;;20.10;87.00;;;;;;5019617;28;20198;-80
2023/07/02 11:35:03;;;;;;;11.65;6.47;;;20.30;87.80;;;;;;5019446;28;20227;-81
2023/07/02 11:37:31;;;;;;;12.95;7.40;;;20.10;87.50;;;;;;5020685;28;20202;-80
2023/07/02 11:39:58;;;;;;;11.40;6.35;;;20.30;88.30;;;;;;5030747;28;20203;-81
2023/07/02 11:42:26;;;;;;;10.82;5.88;;;20.30;87.80;;;;;;5016940;28;20210;-81
2023/07/02 11:44:54;;;;;;;14.88;6.38;;;20.50;84.80;;;;;;5016554;28;20693;-81
2023/07/02 11:47:22;;;;;;;10.35;6.93;;;20.60;85.30;;;;;;5031390;28;20210;-80
2023/07/02 11:49:49;;;;;;;11.85;7.03;;;20.40;85.10;;;;;;5015360;28;20219;-80
2023/07/02 11:52:17;;;;;;;12.05;6.38;;;20.60;85.30;;;;;;5015389;28;20195;-80
2023/07/02 11:54:44;;;;;;;13.07;5.93;;;20.50;85.40;;;;;;5019590;28;20222;-80
2023/07/02 11:57:12;;;;;;;8.63;5.93;;;20.80;83.30;;;;;;5022951;28;20207;-80
2023/07/02 11:59:39;;;;;;;11.27;6.40;;;21.10;82.50;;;;;;5017351;28;20562;-81
2023/07/02 12:02:08;;;;;;;10.00;5.63;;;21.10;82.60;;;;;;5014125;28;20202;-80
2023/07/02 12:04:36;;;;;;;9.82;5.57;;;21.30;82.30;;;;;;5015481;28;20215;-80
2023/07/02 12:07:04;;;;;;;9.25;5.50;;;21.50;81.40;;;;;;5028773;28;20202;-80
2023/07/02 12:09:32;;;;;;;8.20;5.60;;;21.20;80.10;;;;;;5011195;28;20203;-81
2023/07/02 12:11:59;;;;;;;10.75;5.80;;;21.30;79.90;;;;;;5024496;28;20199;-80
2023/07/02 12:14:27;;;;;;;8.55;4.93;;;21.10;80.10;;;;;;5014544;28;20219;-80
2023/07/02 12:16:54;;;;;;;9.40;5.32;;;20.60;79.10;;;;;;5015000;28;20231;-81
2023/07/02 12:19:23;;;;;;;8.25;5.07;;;20.50;80.70;;;;;;5034498;28;20423;-81
2023/07/02 12:21:50;;;;;;;8.43;5.50;;;21.00;80.40;;;;;;5027097;28;20206;-82
2023/07/02 12:24:18;;;;;;;8.27;5.97;;;21.20;79.20;;;;;;5032744;28;20234;-82
2023/07/02 12:26:45;;;;;;;10.55;5.85;;;20.90;78.90;;;;;;5034957;28;20198;-82
2023/07/02 12:29:13;;;;;;;11.23;5.53;;;20.80;78.70;;;;;;5032878;28;20203;-82
2023/07/02 12:31:40;;;;;;;8.95;5.53;;;21.10;79.50;;;;;;5035248;28;20195;-81
2023/07/02 12:34:08;;;;;;;11.93;5.60;;;21.10;79.30;;;;;;5032342;28;20233;-82
2023/07/02 12:36:37;;;;;;;12.02;6.03;;;20.90;79.80;;;;;;5025402;28;20211;-81
2023/07/02 12:39:04;;;;;;;8.38;5.03;;;21.20;79.50;;;;;;5018489;28;20200;-81
2023/07/02 12:41:31;;;;;;;11.15;6.07;;;21.60;78.70;;;;;;5027989;28;20199;-81
2023/07/02 12:43:59;;;;;;;11.07;5.72;;;21.80;78.70;;;;;;5030390;28;20571;-81
2023/07/02 12:46:26;;;;;;;8.13;5.47;;;21.60;79.30;;;;;;5020864;28;20191;-81